sensor_id;sensor_type;location;lat;lon;timestamp;P1;durP1;ratioP1;P2;durP2;ratioP2
32826;SDS011;51059;42.058;27.986;2022-11-15T00:00:48;15.90;;;11.40;;
32826;SDS011;51059;42.058;27.986;2022-11-15T00:03:14;17.43;;;12.00;;
32826;SDS011;51059;42.058;27.986;2022-11-15T00:05:41;16.03;;;11.37;;
32826;SDS011;51059;42.058;27.986;2022-11-15T00:08:07;14.47;;;10.57;;
32826;SDS011;51059;42.058;27.986;2022-11-15T00:10:32;21.07;;;12.57;;
32826;SDS011;51059;42.058;27.986;2022-11-15T00:12:58;17.47;;;12.30;;
32826;SDS011;51059;42.058;27.986;2022-11-15T00:15:23;19.20;;;12.50;;
32826;SDS011;51059;42.058;27.986;2022-11-15T00:17:49;21.23;;;12.60;;
32826;SDS011;51059;42.058;27.986;2022-11-15T00:20:16;23.83;;;15.03;;
32826;SDS011;51059;42.058;27.986;2022-11-15T00:22:42;22.07;;;14.67;;
32826;SDS011;51059;42.058;27.986;2022-11-15T00:25:08;22.60;;;14.33;;
32826;SDS011;51059;42.058;27.986;2022-11-15T00:27:33;24.03;;;15.93;;
32826;SDS011;51059;42.058;27.986;2022-11-15T00:30:00;23.17;;;15.67;;
32826;SDS011;51059;42.058;27.986;2022-11-15T00:32:25;23.37;;;15.60;;
32826;SDS011;51059;42.058;27.986;2022-11-15T00:34:51;26.80;;;15.87;;
32826;SDS011;51059;42.058;27.986;2022-11-15T00:37:17;23.57;;;14.93;;
32826;SDS011;51059;42.058;27.986;2022-11-15T00:39:42;26.80;;;16.10;;
32826;SDS011;51059;42.058;27.986;2022-11-15T00:42:09;25.30;;;15.80;;
32826;SDS011;51059;42.058;27.986;2022-11-15T00:44:34;25.97;;;17.13;;
32826;SDS011;51059;42.058;27.986;2022-11-15T00:47:00;26.63;;;16.27;;
32826;SDS011;51059;42.058;27.986;2022-11-15T00:49:25;26.20;;;16.03;;
32826;SDS011;51059;42.058;27.986;2022-11-15T00:51:51;28.20;;;17.17;;
32826;SDS011;51059;42.058;27.986;2022-11-15T00:54:16;25.67;;;16.67;;
32826;SDS011;51059;42.058;27.986;2022-11-15T00:56:42;24.90;;;16.70;;
32826;SDS011;51059;42.058;27.986;2022-11-15T00:59:07;27.93;;;16.43;;
32826;SDS011;51059;42.058;27.986;2022-11-15T01:01:33;26.73;;;16.80;;
32826;SDS011;51059;42.058;27.986;2022-11-15T01:03:58;26.83;;;16.63;;
32826;SDS011;51059;42.058;27.986;2022-11-15T01:06:24;24.17;;;16.03;;
32826;SDS011;51059;42.058;27.986;2022-11-15T01:08:49;27.37;;;16.73;;
32826;SDS011;51059;42.058;27.986;2022-11-15T01:11:15;28.40;;;16.70;;
32826;SDS011;51059;42.058;27.986;2022-11-15T01:13:41;24.87;;;15.77;;
32826;SDS011;51059;42.058;27.986;2022-11-15T01:16:13;27.83;;;17.13;;
32826;SDS011;51059;42.058;27.986;2022-11-15T01:18:42;29.10;;;16.57;;
32826;SDS011;51059;42.058;27.986;2022-11-15T01:21:13;29.27;;;16.73;;
32826;SDS011;51059;42.058;27.986;2022-11-15T01:23:40;28.63;;;17.23;;
32826;SDS011;51059;42.058;27.986;2022-11-15T01:26:07;27.57;;;17.33;;
32826;SDS011;51059;42.058;27.986;2022-11-15T01:28:36;26.00;;;16.27;;
32826;SDS011;51059;42.058;27.986;2022-11-15T01:31:04;30.13;;;17.90;;
32826;SDS011;51059;42.058;27.986;2022-11-15T01:33:33;26.30;;;16.43;;
32826;SDS011;51059;42.058;27.986;2022-11-15T01:36:02;24.90;;;16.23;;
32826;SDS011;51059;42.058;27.986;2022-11-15T01:38:30;25.93;;;16.67;;
32826;SDS011;51059;42.058;27.986;2022-11-15T01:40:56;25.20;;;16.57;;
32826;SDS011;51059;42.058;27.986;2022-11-15T01:43:26;24.73;;;16.27;;
32826;SDS011;51059;42.058;27.986;2022-11-15T01:45:56;26.97;;;15.97;;
32826;SDS011;51059;42.058;27.986;2022-11-15T01:48:41;27.63;;;15.93;;
32826;SDS011;51059;42.058;27.986;2022-11-15T01:51:08;24.43;;;15.80;;
32826;SDS011;51059;42.058;27.986;2022-11-15T01:53:35;26.40;;;16.30;;
32826;SDS011;51059;42.058;27.986;2022-11-15T01:56:04;27.93;;;15.97;;
32826;SDS011;51059;42.058;27.986;2022-11-15T01:58:31;29.10;;;16.17;;
32826;SDS011;51059;42.058;27.986;2022-11-15T02:00:57;25.50;;;16.47;;
32826;SDS011;51059;42.058;27.986;2022-11-15T02:03:25;23.97;;;16.43;;
32826;SDS011;51059;42.058;27.986;2022-11-15T02:05:53;24.37;;;15.33;;
32826;SDS011;51059;42.058;27.986;2022-11-15T02:08:19;25.80;;;15.70;;
32826;SDS011;51059;42.058;27.986;2022-11-15T02:10:45;27.97;;;15.43;;
32826;SDS011;51059;42.058;27.986;2022-11-15T02:13:13;31.07;;;16.93;;
32826;SDS011;51059;42.058;27.986;2022-11-15T02:16:25;24.83;;;16.90;;
32826;SDS011;51059;42.058;27.986;2022-11-15T02:18:50;26.43;;;16.67;;
32826;SDS011;51059;42.058;27.986;2022-11-15T02:21:33;26.77;;;16.73;;
32826;SDS011;51059;42.058;27.986;2022-11-15T02:35:26;29.43;;;16.90;;
32826;SDS011;51059;42.058;27.986;2022-11-15T02:40:49;25.77;;;16.27;;
32826;SDS011;51059;42.058;27.986;2022-11-15T02:43:22;28.13;;;15.87;;
32826;SDS011;51059;42.058;27.986;2022-11-15T02:46:17;23.70;;;15.37;;
32826;SDS011;51059;42.058;27.986;2022-11-15T02:49:12;24.53;;;15.77;;
32826;SDS011;51059;42.058;27.986;2022-11-15T02:51:38;25.57;;;16.63;;
32826;SDS011;51059;42.058;27.986;2022-11-15T02:54:05;23.40;;;15.70;;
32826;SDS011;51059;42.058;27.986;2022-11-15T02:56:30;24.30;;;15.97;;
32826;SDS011;51059;42.058;27.986;2022-11-15T02:58:59;26.80;;;16.70;;
32826;SDS011;51059;42.058;27.986;2022-11-15T03:02:04;23.43;;;15.53;;
32826;SDS011;51059;42.058;27.986;2022-11-15T03:04:54;25.23;;;14.97;;
32826;SDS011;51059;42.058;27.986;2022-11-15T03:10:25;24.30;;;15.80;;
32826;SDS011;51059;42.058;27.986;2022-11-15T03:12:59;24.20;;;15.53;;
32826;SDS011;51059;42.058;27.986;2022-11-15T03:15:51;26.60;;;15.57;;
32826;SDS011;51059;42.058;27.986;2022-11-15T03:18:23;23.70;;;15.07;;
32826;SDS011;51059;42.058;27.986;2022-11-15T03:20:55;28.07;;;15.50;;
32826;SDS011;51059;42.058;27.986;2022-11-15T03:23:23;25.90;;;15.70;;
32826;SDS011;51059;42.058;27.986;2022-11-15T03:25:50;27.37;;;16.43;;
32826;SDS011;51059;42.058;27.986;2022-11-15T03:28:18;25.30;;;15.73;;
32826;SDS011;51059;42.058;27.986;2022-11-15T03:30:49;22.93;;;15.47;;
32826;SDS011;51059;42.058;27.986;2022-11-15T03:33:17;24.73;;;15.47;;
32826;SDS011;51059;42.058;27.986;2022-11-15T03:35:44;25.37;;;15.90;;
32826;SDS011;51059;42.058;27.986;2022-11-15T03:38:21;26.87;;;15.83;;
32826;SDS011;51059;42.058;27.986;2022-11-15T03:46:15;26.00;;;16.40;;
32826;SDS011;51059;42.058;27.986;2022-11-15T03:48:44;27.27;;;15.20;;
32826;SDS011;51059;42.058;27.986;2022-11-15T03:51:13;25.27;;;16.10;;
32826;SDS011;51059;42.058;27.986;2022-11-15T03:53:40;28.80;;;16.77;;
32826;SDS011;51059;42.058;27.986;2022-11-15T03:56:06;24.33;;;15.50;;
32826;SDS011;51059;42.058;27.986;2022-11-15T03:58:31;23.30;;;15.27;;
32826;SDS011;51059;42.058;27.986;2022-11-15T04:00:57;26.37;;;15.33;;
32826;SDS011;51059;42.058;27.986;2022-11-15T04:03:24;27.00;;;16.07;;
32826;SDS011;51059;42.058;27.986;2022-11-15T04:05:50;22.00;;;15.27;;
32826;SDS011;51059;42.058;27.986;2022-11-15T04:08:15;23.70;;;15.70;;
32826;SDS011;51059;42.058;27.986;2022-11-15T04:10:41;24.00;;;15.37;;
32826;SDS011;51059;42.058;27.986;2022-11-15T04:13:07;24.03;;;15.50;;
32826;SDS011;51059;42.058;27.986;2022-11-15T04:15:32;27.93;;;15.73;;
32826;SDS011;51059;42.058;27.986;2022-11-15T04:17:58;25.67;;;15.67;;
32826;SDS011;51059;42.058;27.986;2022-11-15T04:20:24;22.83;;;15.10;;
32826;SDS011;51059;42.058;27.986;2022-11-15T04:23:17;24.23;;;15.77;;
32826;SDS011;51059;42.058;27.986;2022-11-15T04:26:04;27.57;;;15.80;;
32826;SDS011;51059;42.058;27.986;2022-11-15T04:28:32;24.90;;;14.97;;
32826;SDS011;51059;42.058;27.986;2022-11-15T04:30:57;25.97;;;15.87;;
32826;SDS011;51059;42.058;27.986;2022-11-15T04:33:23;25.40;;;16.70;;
32826;SDS011;51059;42.058;27.986;2022-11-15T04:35:49;25.77;;;16.80;;
32826;SDS011;51059;42.058;27.986;2022-11-15T04:38:33;26.80;;;16.43;;
32826;SDS011;51059;42.058;27.986;2022-11-15T04:40:59;25.73;;;16.00;;
32826;SDS011;51059;42.058;27.986;2022-11-15T04:43:25;23.43;;;15.60;;
32826;SDS011;51059;42.058;27.986;2022-11-15T04:45:50;22.67;;;15.37;;
32826;SDS011;51059;42.058;27.986;2022-11-15T04:48:16;24.90;;;16.07;;
32826;SDS011;51059;42.058;27.986;2022-11-15T04:50:41;23.50;;;15.50;;
32826;SDS011;51059;42.058;27.986;2022-11-15T04:53:07;25.10;;;17.57;;
32826;SDS011;51059;42.058;27.986;2022-11-15T04:55:32;27.20;;;16.97;;
32826;SDS011;51059;42.058;27.986;2022-11-15T04:58:01;23.80;;;16.60;;
32826;SDS011;51059;42.058;27.986;2022-11-15T05:00:27;26.10;;;15.90;;
32826;SDS011;51059;42.058;27.986;2022-11-15T05:02:53;22.80;;;16.17;;
32826;SDS011;51059;42.058;27.986;2022-11-15T05:05:37;21.37;;;14.80;;
32826;SDS011;51059;42.058;27.986;2022-11-15T05:08:03;23.50;;;14.87;;
32826;SDS011;51059;42.058;27.986;2022-11-15T05:10:29;26.43;;;16.37;;
32826;SDS011;51059;42.058;27.986;2022-11-15T05:12:55;23.87;;;15.93;;
32826;SDS011;51059;42.058;27.986;2022-11-15T05:15:20;25.30;;;15.97;;
32826;SDS011;51059;42.058;27.986;2022-11-15T05:17:46;25.73;;;15.50;;
32826;SDS011;51059;42.058;27.986;2022-11-15T05:20:11;23.90;;;15.30;;
32826;SDS011;51059;42.058;27.986;2022-11-15T05:22:37;23.47;;;15.87;;
32826;SDS011;51059;42.058;27.986;2022-11-15T05:25:03;23.83;;;15.47;;
32826;SDS011;51059;42.058;27.986;2022-11-15T05:27:29;23.13;;;15.77;;
32826;SDS011;51059;42.058;27.986;2022-11-15T05:29:55;24.33;;;16.77;;
32826;SDS011;51059;42.058;27.986;2022-11-15T05:32:20;28.97;;;17.13;;
32826;SDS011;51059;42.058;27.986;2022-11-15T05:34:46;27.13;;;16.90;;
32826;SDS011;51059;42.058;27.986;2022-11-15T05:37:12;25.57;;;16.70;;
32826;SDS011;51059;42.058;27.986;2022-11-15T05:39:38;26.73;;;16.90;;
32826;SDS011;51059;42.058;27.986;2022-11-15T05:42:06;25.23;;;17.17;;
32826;SDS011;51059;42.058;27.986;2022-11-15T05:44:36;27.63;;;16.50;;
32826;SDS011;51059;42.058;27.986;2022-11-15T05:47:03;27.43;;;16.83;;
32826;SDS011;51059;42.058;27.986;2022-11-15T05:49:31;38.27;;;21.30;;
32826;SDS011;51059;42.058;27.986;2022-11-15T05:51:59;32.47;;;20.00;;
32826;SDS011;51059;42.058;27.986;2022-11-15T05:54:25;37.37;;;21.13;;
32826;SDS011;51059;42.058;27.986;2022-11-15T05:56:50;29.63;;;19.43;;
32826;SDS011;51059;42.058;27.986;2022-11-15T05:59:16;29.40;;;17.97;;
32826;SDS011;51059;42.058;27.986;2022-11-15T06:01:42;30.60;;;19.23;;
32826;SDS011;51059;42.058;27.986;2022-11-15T06:04:08;28.40;;;18.10;;
32826;SDS011;51059;42.058;27.986;2022-11-15T06:06:34;28.77;;;17.80;;
32826;SDS011;51059;42.058;27.986;2022-11-15T06:08:59;27.73;;;18.40;;
32826;SDS011;51059;42.058;27.986;2022-11-15T06:11:25;31.47;;;19.47;;
32826;SDS011;51059;42.058;27.986;2022-11-15T06:13:50;36.33;;;20.70;;
32826;SDS011;51059;42.058;27.986;2022-11-15T06:16:16;30.10;;;18.40;;
32826;SDS011;51059;42.058;27.986;2022-11-15T06:18:41;28.20;;;18.10;;
32826;SDS011;51059;42.058;27.986;2022-11-15T06:21:07;28.37;;;18.73;;
32826;SDS011;51059;42.058;27.986;2022-11-15T06:23:33;34.27;;;20.83;;
32826;SDS011;51059;42.058;27.986;2022-11-15T06:26:00;34.77;;;22.90;;
32826;SDS011;51059;42.058;27.986;2022-11-15T06:28:29;34.47;;;21.10;;
32826;SDS011;51059;42.058;27.986;2022-11-15T06:30:55;27.47;;;18.17;;
32826;SDS011;51059;42.058;27.986;2022-11-15T06:33:22;27.60;;;16.43;;
32826;SDS011;51059;42.058;27.986;2022-11-15T06:35:47;24.67;;;15.43;;
32826;SDS011;51059;42.058;27.986;2022-11-15T06:38:13;20.50;;;14.50;;
32826;SDS011;51059;42.058;27.986;2022-11-15T06:40:38;20.00;;;13.23;;
32826;SDS011;51059;42.058;27.986;2022-11-15T06:43:04;18.33;;;12.53;;
32826;SDS011;51059;42.058;27.986;2022-11-15T06:45:31;20.47;;;13.20;;
32826;SDS011;51059;42.058;27.986;2022-11-15T06:47:57;20.10;;;12.03;;
32826;SDS011;51059;42.058;27.986;2022-11-15T06:50:23;20.10;;;12.43;;
32826;SDS011;51059;42.058;27.986;2022-11-15T06:52:49;18.07;;;12.23;;
32826;SDS011;51059;42.058;27.986;2022-11-15T06:55:15;22.33;;;13.80;;
32826;SDS011;51059;42.058;27.986;2022-11-15T06:57:47;19.73;;;13.27;;
32826;SDS011;51059;42.058;27.986;2022-11-15T07:00:13;19.67;;;12.77;;
32826;SDS011;51059;42.058;27.986;2022-11-15T07:02:40;21.63;;;12.93;;
32826;SDS011;51059;42.058;27.986;2022-11-15T07:05:05;19.20;;;12.77;;
32826;SDS011;51059;42.058;27.986;2022-11-15T07:07:31;22.63;;;12.70;;
32826;SDS011;51059;42.058;27.986;2022-11-15T07:09:57;21.50;;;13.03;;
32826;SDS011;51059;42.058;27.986;2022-11-15T07:12:22;24.10;;;14.27;;
32826;SDS011;51059;42.058;27.986;2022-11-15T07:14:48;22.10;;;14.20;;
32826;SDS011;51059;42.058;27.986;2022-11-15T07:17:13;23.43;;;15.37;;
32826;SDS011;51059;42.058;27.986;2022-11-15T07:19:39;21.83;;;14.30;;
32826;SDS011;51059;42.058;27.986;2022-11-15T07:22:04;19.97;;;13.33;;
32826;SDS011;51059;42.058;27.986;2022-11-15T07:24:30;17.00;;;12.97;;
32826;SDS011;51059;42.058;27.986;2022-11-15T07:26:55;20.23;;;13.20;;
32826;SDS011;51059;42.058;27.986;2022-11-15T07:29:21;19.40;;;13.60;;
32826;SDS011;51059;42.058;27.986;2022-11-15T07:31:46;20.90;;;12.63;;
32826;SDS011;51059;42.058;27.986;2022-11-15T07:34:13;19.00;;;12.97;;
32826;SDS011;51059;42.058;27.986;2022-11-15T07:36:38;21.77;;;13.50;;
32826;SDS011;51059;42.058;27.986;2022-11-15T07:39:04;19.57;;;12.97;;
32826;SDS011;51059;42.058;27.986;2022-11-15T07:41:29;19.37;;;13.73;;
32826;SDS011;51059;42.058;27.986;2022-11-15T07:43:55;19.73;;;13.23;;
32826;SDS011;51059;42.058;27.986;2022-11-15T07:46:20;16.37;;;12.07;;
32826;SDS011;51059;42.058;27.986;2022-11-15T07:48:46;21.97;;;15.40;;
32826;SDS011;51059;42.058;27.986;2022-11-15T07:51:12;18.97;;;12.33;;
32826;SDS011;51059;42.058;27.986;2022-11-15T07:53:39;17.10;;;11.90;;
32826;SDS011;51059;42.058;27.986;2022-11-15T07:56:07;18.80;;;12.27;;
32826;SDS011;51059;42.058;27.986;2022-11-15T07:58:34;17.53;;;12.10;;
32826;SDS011;51059;42.058;27.986;2022-11-15T08:01:02;17.10;;;11.67;;
32826;SDS011;51059;42.058;27.986;2022-11-15T08:03:29;17.97;;;11.67;;
32826;SDS011;51059;42.058;27.986;2022-11-15T08:05:54;18.57;;;11.70;;
32826;SDS011;51059;42.058;27.986;2022-11-15T08:08:20;17.77;;;12.07;;
32826;SDS011;51059;42.058;27.986;2022-11-15T08:10:45;16.97;;;11.40;;
32826;SDS011;51059;42.058;27.986;2022-11-15T08:13:11;17.23;;;11.80;;
32826;SDS011;51059;42.058;27.986;2022-11-15T08:15:38;20.67;;;11.50;;
32826;SDS011;51059;42.058;27.986;2022-11-15T08:18:05;15.97;;;11.60;;
32826;SDS011;51059;42.058;27.986;2022-11-15T08:20:32;16.60;;;11.10;;
32826;SDS011;51059;42.058;27.986;2022-11-15T08:22:58;15.60;;;11.20;;
32826;SDS011;51059;42.058;27.986;2022-11-15T08:25:24;17.90;;;11.73;;
32826;SDS011;51059;42.058;27.986;2022-11-15T08:27:55;16.43;;;11.60;;
32826;SDS011;51059;42.058;27.986;2022-11-15T08:30:22;14.77;;;11.10;;
32826;SDS011;51059;42.058;27.986;2022-11-15T08:32:48;15.47;;;11.07;;
32826;SDS011;51059;42.058;27.986;2022-11-15T08:35:14;17.10;;;11.70;;
32826;SDS011;51059;42.058;27.986;2022-11-15T08:37:40;18.27;;;11.30;;
32826;SDS011;51059;42.058;27.986;2022-11-15T08:40:06;16.13;;;11.17;;
32826;SDS011;51059;42.058;27.986;2022-11-15T08:42:32;15.70;;;11.30;;
32826;SDS011;51059;42.058;27.986;2022-11-15T08:44:57;17.17;;;11.03;;
32826;SDS011;51059;42.058;27.986;2022-11-15T08:47:23;15.20;;;10.97;;
32826;SDS011;51059;42.058;27.986;2022-11-15T08:49:49;13.60;;;10.70;;
32826;SDS011;51059;42.058;27.986;2022-11-15T08:52:14;15.70;;;11.00;;
32826;SDS011;51059;42.058;27.986;2022-11-15T08:54:40;14.50;;;10.07;;
32826;SDS011;51059;42.058;27.986;2022-11-15T08:57:06;11.13;;;8.27;;
32826;SDS011;51059;42.058;27.986;2022-11-15T08:59:32;14.67;;;9.57;;
32826;SDS011;51059;42.058;27.986;2022-11-15T09:01:57;12.87;;;10.10;;
32826;SDS011;51059;42.058;27.986;2022-11-15T09:04:23;14.57;;;9.83;;
32826;SDS011;51059;42.058;27.986;2022-11-15T09:06:48;11.97;;;9.37;;
32826;SDS011;51059;42.058;27.986;2022-11-15T09:09:14;15.63;;;10.23;;
32826;SDS011;51059;42.058;27.986;2022-11-15T09:11:39;14.20;;;10.20;;
32826;SDS011;51059;42.058;27.986;2022-11-15T09:14:05;13.20;;;9.80;;
32826;SDS011;51059;42.058;27.986;2022-11-15T09:16:31;12.70;;;9.37;;
32826;SDS011;51059;42.058;27.986;2022-11-15T09:18:56;13.33;;;9.50;;
32826;SDS011;51059;42.058;27.986;2022-11-15T09:21:22;13.40;;;9.97;;
32826;SDS011;51059;42.058;27.986;2022-11-15T09:23:51;14.73;;;10.00;;
32826;SDS011;51059;42.058;27.986;2022-11-15T09:26:17;11.87;;;8.93;;
32826;SDS011;51059;42.058;27.986;2022-11-15T09:28:43;12.50;;;8.80;;
32826;SDS011;51059;42.058;27.986;2022-11-15T09:31:08;12.70;;;9.60;;
32826;SDS011;51059;42.058;27.986;2022-11-15T09:33:34;15.30;;;8.40;;
32826;SDS011;51059;42.058;27.986;2022-11-15T09:36:01;14.40;;;9.43;;
32826;SDS011;51059;42.058;27.986;2022-11-15T09:38:28;11.33;;;8.37;;
32826;SDS011;51059;42.058;27.986;2022-11-15T09:40:58;12.27;;;8.27;;
32826;SDS011;51059;42.058;27.986;2022-11-15T09:49:03;13.27;;;9.40;;
32826;SDS011;51059;42.058;27.986;2022-11-15T09:51:33;11.57;;;9.00;;
32826;SDS011;51059;42.058;27.986;2022-11-15T09:56:35;11.97;;;8.50;;
32826;SDS011;51059;42.058;27.986;2022-11-15T10:04:30;12.43;;;8.87;;
32826;SDS011;51059;42.058;27.986;2022-11-15T10:07:03;11.13;;;8.50;;
32826;SDS011;51059;42.058;27.986;2022-11-15T10:09:54;10.90;;;8.53;;
32826;SDS011;51059;42.058;27.986;2022-11-15T10:12:29;11.43;;;8.73;;
32826;SDS011;51059;42.058;27.986;2022-11-15T10:15:01;11.07;;;8.07;;
32826;SDS011;51059;42.058;27.986;2022-11-15T10:20:49;12.33;;;8.30;;
32826;SDS011;51059;42.058;27.986;2022-11-15T10:23:16;12.33;;;8.17;;
32826;SDS011;51059;42.058;27.986;2022-11-15T10:25:43;14.87;;;8.90;;
32826;SDS011;51059;42.058;27.986;2022-11-15T10:30:48;11.07;;;8.43;;
32826;SDS011;51059;42.058;27.986;2022-11-15T10:33:31;11.83;;;8.67;;
32826;SDS011;51059;42.058;27.986;2022-11-15T10:41:37;11.70;;;8.23;;
32826;SDS011;51059;42.058;27.986;2022-11-15T10:46:36;9.53;;;7.60;;
32826;SDS011;51059;42.058;27.986;2022-11-15T10:49:25;9.47;;;7.70;;
32826;SDS011;51059;42.058;27.986;2022-11-15T10:51:54;11.43;;;8.40;;
32826;SDS011;51059;42.058;27.986;2022-11-15T10:54:23;10.17;;;8.00;;
32826;SDS011;51059;42.058;27.986;2022-11-15T10:56:51;12.23;;;8.07;;
32826;SDS011;51059;42.058;27.986;2022-11-15T10:59:29;10.53;;;7.70;;
32826;SDS011;51059;42.058;27.986;2022-11-15T11:01:57;10.20;;;7.90;;
32826;SDS011;51059;42.058;27.986;2022-11-15T11:04:23;12.20;;;8.87;;
32826;SDS011;51059;42.058;27.986;2022-11-15T11:09:22;13.07;;;7.93;;
32826;SDS011;51059;42.058;27.986;2022-11-15T11:11:54;12.97;;;8.27;;
32826;SDS011;51059;42.058;27.986;2022-11-15T11:16:58;12.73;;;8.47;;
32826;SDS011;51059;42.058;27.986;2022-11-15T11:19:37;11.47;;;9.30;;
32826;SDS011;51059;42.058;27.986;2022-11-15T11:22:20;11.60;;;8.53;;
32826;SDS011;51059;42.058;27.986;2022-11-15T11:27:57;11.83;;;8.57;;
32826;SDS011;51059;42.058;27.986;2022-11-15T11:30:41;13.10;;;9.00;;
32826;SDS011;51059;42.058;27.986;2022-11-15T11:33:33;10.03;;;8.57;;
32826;SDS011;51059;42.058;27.986;2022-11-15T11:36:29;13.47;;;10.00;;
32826;SDS011;51059;42.058;27.986;2022-11-15T11:39:20;13.97;;;9.80;;
32826;SDS011;51059;42.058;27.986;2022-11-15T11:47:28;13.00;;;9.83;;
32826;SDS011;51059;42.058;27.986;2022-11-15T12:00:54;16.27;;;10.43;;
32826;SDS011;51059;42.058;27.986;2022-11-15T12:11:30;12.87;;;10.03;;
32826;SDS011;51059;42.058;27.986;2022-11-15T12:14:01;17.00;;;10.77;;
32826;SDS011;51059;42.058;27.986;2022-11-15T12:16:29;14.20;;;10.60;;
32826;SDS011;51059;42.058;27.986;2022-11-15T12:18:59;15.87;;;9.87;;
32826;SDS011;51059;42.058;27.986;2022-11-15T12:27:02;13.60;;;10.60;;
32826;SDS011;51059;42.058;27.986;2022-11-15T12:29:50;13.50;;;10.57;;
32826;SDS011;51059;42.058;27.986;2022-11-15T12:32:21;15.50;;;10.07;;
32826;SDS011;51059;42.058;27.986;2022-11-15T12:34:51;14.67;;;10.50;;
32826;SDS011;51059;42.058;27.986;2022-11-15T12:38:03;13.67;;;9.57;;
32826;SDS011;51059;42.058;27.986;2022-11-15T12:42:39;15.27;;;9.77;;
32826;SDS011;51059;42.058;27.986;2022-11-15T12:47:50;14.23;;;11.00;;
32826;SDS011;51059;42.058;27.986;2022-11-15T12:50:16;11.33;;;9.00;;
32826;SDS011;51059;42.058;27.986;2022-11-15T12:58:59;13.80;;;8.47;;
32826;SDS011;51059;42.058;27.986;2022-11-15T13:06:46;9.83;;;6.43;;
32826;SDS011;51059;42.058;27.986;2022-11-15T13:11:59;9.23;;;7.07;;
32826;SDS011;51059;42.058;27.986;2022-11-15T13:14:43;11.83;;;7.47;;
32826;SDS011;51059;42.058;27.986;2022-11-15T13:17:28;10.87;;;8.43;;
32826;SDS011;51059;42.058;27.986;2022-11-15T13:22:26;9.83;;;7.60;;
32826;SDS011;51059;42.058;27.986;2022-11-15T13:25:15;10.90;;;7.87;;
32826;SDS011;51059;42.058;27.986;2022-11-15T13:27:45;13.57;;;7.67;;
32826;SDS011;51059;42.058;27.986;2022-11-15T13:30:13;11.27;;;7.73;;
32826;SDS011;51059;42.058;27.986;2022-11-15T13:32:44;18.17;;;8.10;;
32826;SDS011;51059;42.058;27.986;2022-11-15T13:35:09;11.17;;;7.60;;
32826;SDS011;51059;42.058;27.986;2022-11-15T13:37:35;11.17;;;8.10;;
32826;SDS011;51059;42.058;27.986;2022-11-15T13:42:47;13.10;;;9.13;;
32826;SDS011;51059;42.058;27.986;2022-11-15T13:45:14;10.03;;;8.20;;
32826;SDS011;51059;42.058;27.986;2022-11-15T13:47:41;13.27;;;8.13;;
32826;SDS011;51059;42.058;27.986;2022-11-15T13:50:10;9.47;;;7.17;;
32826;SDS011;51059;42.058;27.986;2022-11-15T13:52:36;9.57;;;7.80;;
32826;SDS011;51059;42.058;27.986;2022-11-15T13:55:21;8.47;;;7.17;;
32826;SDS011;51059;42.058;27.986;2022-11-15T14:02:54;7.93;;;6.63;;
32826;SDS011;51059;42.058;27.986;2022-11-15T14:05:21;10.67;;;6.77;;
32826;SDS011;51059;42.058;27.986;2022-11-15T14:08:03;8.23;;;6.37;;
32826;SDS011;51059;42.058;27.986;2022-11-15T14:10:32;12.27;;;7.23;;
32826;SDS011;51059;42.058;27.986;2022-11-15T14:13:01;11.20;;;7.60;;
32826;SDS011;51059;42.058;27.986;2022-11-15T14:15:29;10.07;;;7.00;;
32826;SDS011;51059;42.058;27.986;2022-11-15T14:17:56;9.97;;;7.57;;
32826;SDS011;51059;42.058;27.986;2022-11-15T14:22:51;11.67;;;7.07;;
32826;SDS011;51059;42.058;27.986;2022-11-15T14:25:19;10.77;;;7.33;;
32826;SDS011;51059;42.058;27.986;2022-11-15T14:30:35;11.70;;;7.43;;
32826;SDS011;51059;42.058;27.986;2022-11-15T14:33:00;10.10;;;7.47;;
32826;SDS011;51059;42.058;27.986;2022-11-15T14:35:26;9.70;;;6.80;;
32826;SDS011;51059;42.058;27.986;2022-11-15T14:37:52;9.90;;;6.67;;
32826;SDS011;51059;42.058;27.986;2022-11-15T14:40:19;12.13;;;6.77;;
32826;SDS011;51059;42.058;27.986;2022-11-15T14:42:46;9.93;;;6.53;;
32826;SDS011;51059;42.058;27.986;2022-11-15T14:45:17;9.50;;;6.07;;
32826;SDS011;51059;42.058;27.986;2022-11-15T14:47:45;8.07;;;6.10;;
32826;SDS011;51059;42.058;27.986;2022-11-15T14:50:11;8.23;;;6.43;;
32826;SDS011;51059;42.058;27.986;2022-11-15T14:52:38;9.07;;;6.10;;
32826;SDS011;51059;42.058;27.986;2022-11-15T14:55:10;8.07;;;5.47;;
32826;SDS011;51059;42.058;27.986;2022-11-15T14:57:37;8.43;;;6.17;;
32826;SDS011;51059;42.058;27.986;2022-11-15T15:00:04;10.77;;;6.10;;
32826;SDS011;51059;42.058;27.986;2022-11-15T15:02:30;8.17;;;6.30;;
32826;SDS011;51059;42.058;27.986;2022-11-15T15:04:56;6.87;;;5.87;;
32826;SDS011;51059;42.058;27.986;2022-11-15T15:07:26;8.17;;;5.80;;
32826;SDS011;51059;42.058;27.986;2022-11-15T15:09:51;6.23;;;4.90;;
32826;SDS011;51059;42.058;27.986;2022-11-15T15:12:19;5.30;;;4.50;;
32826;SDS011;51059;42.058;27.986;2022-11-15T15:14:46;5.90;;;4.77;;
32826;SDS011;51059;42.058;27.986;2022-11-15T15:17:13;6.53;;;5.30;;
32826;SDS011;51059;42.058;27.986;2022-11-15T15:19:38;8.77;;;6.40;;
32826;SDS011;51059;42.058;27.986;2022-11-15T15:22:04;10.27;;;7.17;;
32826;SDS011;51059;42.058;27.986;2022-11-15T15:24:30;11.00;;;6.87;;
32826;SDS011;51059;42.058;27.986;2022-11-15T15:26:56;9.70;;;7.80;;
32826;SDS011;51059;42.058;27.986;2022-11-15T15:29:22;8.90;;;6.57;;
32826;SDS011;51059;42.058;27.986;2022-11-15T15:31:47;9.10;;;6.97;;
32826;SDS011;51059;42.058;27.986;2022-11-15T15:34:13;8.37;;;6.60;;
32826;SDS011;51059;42.058;27.986;2022-11-15T15:36:39;7.73;;;5.77;;
32826;SDS011;51059;42.058;27.986;2022-11-15T15:39:04;9.13;;;5.60;;
32826;SDS011;51059;42.058;27.986;2022-11-15T15:41:30;7.60;;;5.23;;
32826;SDS011;51059;42.058;27.986;2022-11-15T15:43:55;6.00;;;4.80;;
32826;SDS011;51059;42.058;27.986;2022-11-15T15:46:21;6.17;;;4.87;;
32826;SDS011;51059;42.058;27.986;2022-11-15T15:48:47;6.33;;;4.67;;
32826;SDS011;51059;42.058;27.986;2022-11-15T15:51:13;5.37;;;4.13;;
32826;SDS011;51059;42.058;27.986;2022-11-15T15:53:38;5.93;;;4.10;;
32826;SDS011;51059;42.058;27.986;2022-11-15T15:56:04;5.40;;;4.03;;
32826;SDS011;51059;42.058;27.986;2022-11-15T15:58:33;5.03;;;4.07;;
32826;SDS011;51059;42.058;27.986;2022-11-15T16:00:58;5.20;;;3.70;;
32826;SDS011;51059;42.058;27.986;2022-11-15T16:03:24;5.70;;;3.70;;
32826;SDS011;51059;42.058;27.986;2022-11-15T16:05:50;5.70;;;4.60;;
32826;SDS011;51059;42.058;27.986;2022-11-15T16:08:20;6.80;;;4.63;;
32826;SDS011;51059;42.058;27.986;2022-11-15T16:10:49;5.40;;;4.33;;
32826;SDS011;51059;42.058;27.986;2022-11-15T16:13:15;5.30;;;4.20;;
32826;SDS011;51059;42.058;27.986;2022-11-15T16:15:41;5.10;;;4.17;;
32826;SDS011;51059;42.058;27.986;2022-11-15T16:18:17;5.97;;;4.23;;
32826;SDS011;51059;42.058;27.986;2022-11-15T16:20:44;6.20;;;4.60;;
32826;SDS011;51059;42.058;27.986;2022-11-15T16:23:11;6.23;;;4.23;;
32826;SDS011;51059;42.058;27.986;2022-11-15T16:25:40;5.47;;;4.33;;
32826;SDS011;51059;42.058;27.986;2022-11-15T16:28:15;4.90;;;4.20;;